Time;durP1;ratioP1;P1;durP2;ratioP2;P2;SDS_P1;SDS_P2;PMS_P1;PMS_P2;Temp;Humidity;BMP_temperature;BMP_pressure;BME280_temperature;BME280_humidity;BME280_pressure;Samples;Min_cycle;Max_cycle;Signal;HPM_P1;HPM_P2
2022/09/10 00:01:19;;;;;;;7.85;2.85;;;16.00;99.90;;;;;;5014061;28;20038;-78
2022/09/10 00:03:48;;;;;;;7.85;3.00;;;16.00;99.90;;;;;;5014025;28;20034;-78
2022/09/10 00:06:15;;;;;;;10.90;3.40;;;16.00;99.90;;;;;;5015548;28;20467;-78
2022/09/10 00:08:40;;;;;;;8.50;2.95;;;16.00;99.90;;;;;;5013850;28;20022;-79
2022/09/10 00:11:08;;;;;;;9.35;2.80;;;16.00;99.90;;;;;;5013890;28;20045;-78
2022/09/10 00:13:36;;;;;;;6.88;2.70;;;16.00;99.90;;;;;;5013748;28;20112;-78
2022/09/10 00:16:04;;;;;;;9.85;2.92;;;16.00;99.90;;;;;;5014026;28;20121;-78
2022/09/10 00:18:30;;;;;;;6.63;3.00;;;16.10;99.90;;;;;;5013422;28;20505;-78
2022/09/10 00:20:58;;;;;;;8.85;2.25;;;16.00;99.90;;;;;;4996996;28;20404;-77
2022/09/10 00:23:26;;;;;;;9.85;2.75;;;16.10;99.90;;;;;;5013511;28;20045;-78
2022/09/10 00:25:53;;;;;;;6.97;3.03;;;16.00;99.90;;;;;;5013561;28;20064;-78
2022/09/10 00:28:20;;;;;;;10.50;4.00;;;16.00;99.90;;;;;;5014937;28;20118;-78
2022/09/10 00:30:48;;;;;;;10.35;3.42;;;16.10;99.90;;;;;;5014789;28;20481;-79
2022/09/10 00:33:16;;;;;;;8.98;3.40;;;16.00;99.90;;;;;;5014793;28;20449;-79
2022/09/10 00:35:43;;;;;;;7.43;3.28;;;16.00;99.90;;;;;;5013603;28;20032;-78
2022/09/10 00:38:10;;;;;;;11.23;3.60;;;16.00;99.90;;;;;;5013409;28;20079;-77
2022/09/10 00:40:37;;;;;;;11.90;3.63;;;16.00;99.90;;;;;;5013503;28;20126;-78
2022/09/10 00:43:05;;;;;;;9.40;4.18;;;16.00;99.90;;;;;;5013343;28;20026;-78
2022/09/10 00:45:34;;;;;;;13.85;4.45;;;16.00;99.90;;;;;;5005730;28;20063;-78
2022/09/10 00:48:14;;;;;;;12.45;4.80;;;16.00;99.90;;;;;;5028096;28;20034;-79
2022/09/10 00:50:44;;;;;;;12.05;5.95;;;16.00;99.90;;;;;;5031654;28;20057;-77
2022/09/10 00:53:16;;;;;;;12.52;5.38;;;16.00;99.90;;;;;;5032491;28;20064;-77
2022/09/10 00:55:44;;;;;;;11.90;5.85;;;16.10;99.90;;;;;;5032667;28;20017;-78
2022/09/10 00:58:12;;;;;;;11.88;5.05;;;16.10;99.90;;;;;;5032730;28;20022;-77
2022/09/10 01:00:40;;;;;;;11.80;5.38;;;16.10;99.90;;;;;;5033007;28;20036;-78
2022/09/10 01:03:10;;;;;;;11.48;5.72;;;16.10;99.90;;;;;;5016517;28;20060;-78
2022/09/10 01:05:37;;;;;;;10.15;6.18;;;16.10;99.90;;;;;;5032709;28;20025;-78
2022/09/10 01:08:04;;;;;;;14.60;6.78;;;16.20;99.90;;;;;;5033859;28;20065;-78
2022/09/10 01:10:48;;;;;;;10.02;6.88;;;16.10;99.90;;;;;;5033831;28;20031;-78
2022/09/10 01:14:05;;;;;;;11.98;6.90;;;16.10;99.90;;;;;;5032481;28;20052;-79
2022/09/10 01:16:54;;;;;;;14.77;7.10;;;16.20;99.90;;;;;;5024002;28;20496;-79
2022/09/10 01:19:40;;;;;;;12.13;6.25;;;16.20;99.90;;;;;;5032357;28;20030;-78
2022/09/10 01:22:42;;;;;;;14.73;7.78;;;16.20;99.90;;;;;;5032426;28;20056;-79
2022/09/10 01:25:45;;;;;;;11.73;7.25;;;16.20;99.90;;;;;;5033480;28;20490;-79
2022/09/10 01:28:22;;;;;;;15.32;8.85;;;16.20;99.90;;;;;;5033669;28;20033;-79
2022/09/10 01:30:55;;;;;;;19.55;9.25;;;16.20;99.90;;;;;;5032014;28;20029;-77
2022/09/10 01:33:38;;;;;;;16.05;7.95;;;16.20;99.90;;;;;;5027390;28;20389;-78
2022/09/10 01:36:15;;;;;;;16.23;9.15;;;16.20;99.90;;;;;;5030463;28;20076;-78
2022/09/10 01:38:42;;;;;;;18.52;8.98;;;16.20;99.90;;;;;;5032011;28;20022;-78
2022/09/10 01:41:08;;;;;;;13.45;8.55;;;16.20;99.90;;;;;;5015342;28;20453;-79
2022/09/10 01:43:33;;;;;;;16.13;10.27;;;16.20;99.90;;;;;;5031994;28;20033;-79
2022/09/10 01:46:19;;;;;;;19.27;12.55;;;16.20;99.90;;;;;;5032084;28;20091;-78
2022/09/10 01:49:01;;;;;;;17.75;11.75;;;16.20;99.90;;;;;;5033033;28;20063;-77
2022/09/10 01:51:51;;;;;;;15.20;10.68;;;16.20;99.90;;;;;;5032988;28;20048;-78
2022/09/10 01:54:45;;;;;;;16.05;11.00;;;16.20;99.90;;;;;;5031882;28;20021;-79
2022/09/10 01:57:46;;;;;;;16.40;9.48;;;16.20;99.90;;;;;;5031718;28;20025;-78
2022/09/10 02:00:15;;;;;;;15.98;10.80;;;16.20;99.90;;;;;;5033058;28;20082;-78
2022/09/10 02:03:10;;;;;;;17.92;10.38;;;16.20;99.90;;;;;;5033089;28;20042;-79
2022/09/10 02:05:40;;;;;;;19.23;10.68;;;16.20;99.90;;;;;;5028137;28;20022;-78
2022/09/10 02:08:13;;;;;;;19.10;10.48;;;16.20;99.90;;;;;;5028525;28;20089;-78
2022/09/10 02:10:54;;;;;;;14.73;10.17;;;16.20;99.90;;;;;;5013076;28;20076;-78
2022/09/10 02:13:22;;;;;;;20.88;11.45;;;16.20;99.90;;;;;;5012195;28;20025;-79
2022/09/10 02:15:50;;;;;;;16.95;11.38;;;16.30;99.90;;;;;;5013378;28;20504;-78
2022/09/10 02:18:16;;;;;;;17.65;11.00;;;16.30;99.90;;;;;;5012438;28;20018;-79
2022/09/10 02:20:41;;;;;;;17.38;11.32;;;16.30;99.90;;;;;;5012163;28;20084;-78
2022/09/10 02:23:09;;;;;;;17.13;10.65;;;16.20;99.90;;;;;;5013199;28;20033;-78
2022/09/10 02:25:36;;;;;;;15.73;10.90;;;16.20;99.90;;;;;;5013382;28;20034;-78
2022/09/10 02:28:03;;;;;;;21.35;9.45;;;16.20;99.90;;;;;;5012332;28;20026;-78
2022/09/10 02:30:30;;;;;;;18.27;10.48;;;16.30;99.90;;;;;;5012465;28;20073;-78
2022/09/10 02:32:55;;;;;;;19.27;12.27;;;16.30;99.90;;;;;;4995636;28;20427;-78
2022/09/10 02:35:21;;;;;;;14.52;9.88;;;16.30;99.90;;;;;;4995674;28;20056;-79
2022/09/10 02:37:48;;;;;;;17.73;10.73;;;16.30;99.90;;;;;;5012090;28;20026;-79
2022/09/10 02:40:14;;;;;;;18.50;10.90;;;16.30;99.90;;;;;;5011856;28;20033;-78
2022/09/10 02:42:43;;;;;;;13.55;9.68;;;16.30;99.90;;;;;;4996541;28;20092;-78
2022/09/10 02:45:09;;;;;;;16.92;9.43;;;16.30;99.90;;;;;;5021767;28;20088;-78
2022/09/10 02:47:34;;;;;;;16.33;9.52;;;16.20;99.90;;;;;;5015408;28;20482;-79
2022/09/10 02:50:01;;;;;;;16.45;10.43;;;16.30;99.90;;;;;;5014812;28;20030;-78
2022/09/10 02:52:27;;;;;;;16.63;10.02;;;16.30;99.90;;;;;;5031777;28;20076;-77
2022/09/10 02:54:53;;;;;;;19.08;11.15;;;16.30;99.90;;;;;;5015122;28;20525;-78
2022/09/10 02:57:19;;;;;;;15.75;10.93;;;16.20;99.90;;;;;;5015047;28;20061;-79
2022/09/10 02:59:45;;;;;;;15.18;10.27;;;16.30;99.90;;;;;;5031464;28;20410;-80
2022/09/10 03:02:11;;;;;;;15.77;10.15;;;16.30;99.90;;;;;;5015051;28;20042;-80
2022/09/10 03:04:37;;;;;;;15.10;9.70;;;16.20;99.90;;;;;;5014909;28;20033;-77
2022/09/10 03:07:03;;;;;;;14.27;10.50;;;16.20;99.90;;;;;;5014980;28;20022;-78
2022/09/10 03:09:29;;;;;;;14.63;11.43;;;16.20;99.90;;;;;;5031418;28;20022;-79
2022/09/10 03:11:54;;;;;;;14.90;11.07;;;16.20;99.90;;;;;;5031407;28;20033;-78
2022/09/10 03:14:22;;;;;;;19.65;11.60;;;16.20;99.90;;;;;;5014824;28;20022;-79
2022/09/10 03:16:48;;;;;;;15.48;11.25;;;16.20;99.90;;;;;;5014683;28;20109;-78
2022/09/10 03:19:15;;;;;;;14.93;10.57;;;16.20;99.90;;;;;;5014646;28;20109;-79
2022/09/10 03:21:41;;;;;;;14.70;11.65;;;16.20;99.90;;;;;;5014567;28;20386;-79
2022/09/10 03:24:09;;;;;;;21.23;11.73;;;16.20;99.90;;;;;;5014595;28;20088;-79
2022/09/10 03:26:35;;;;;;;16.80;11.35;;;16.20;99.90;;;;;;5015854;28;20099;-78
2022/09/10 03:29:01;;;;;;;18.58;12.00;;;16.30;99.90;;;;;;5014389;28;20042;-79
2022/09/10 03:31:26;;;;;;;18.48;10.80;;;16.20;99.90;;;;;;5031076;28;20037;-77
2022/09/10 03:33:52;;;;;;;19.23;11.15;;;16.20;99.90;;;;;;5014542;28;20543;-78
2022/09/10 03:36:19;;;;;;;15.70;11.95;;;16.30;99.90;;;;;;5014207;28;20430;-81
2022/09/10 03:38:45;;;;;;;17.63;11.45;;;16.20;99.90;;;;;;5032836;28;20021;-79
2022/09/10 03:41:11;;;;;;;16.75;11.13;;;16.20;99.90;;;;;;5035650;28;20041;-80
2022/09/10 03:43:36;;;;;;;18.20;12.10;;;16.20;99.90;;;;;;5017694;28;20112;-78
2022/09/10 03:46:02;;;;;;;14.15;11.23;;;16.20;99.90;;;;;;5035521;28;20439;-79
2022/09/10 03:48:28;;;;;;;15.40;11.40;;;16.20;99.90;;;;;;5032621;28;20044;-77
2022/09/10 03:50:55;;;;;;;17.45;10.88;;;16.20;99.90;;;;;;5033782;28;20029;-78
2022/09/10 03:53:21;;;;;;;20.15;11.82;;;16.20;99.90;;;;;;5016953;28;20386;-78
2022/09/10 03:55:49;;;;;;;18.70;12.45;;;16.20;99.90;;;;;;5035038;28;20037;-80
2022/09/10 03:58:16;;;;;;;21.25;11.90;;;16.20;99.90;;;;;;5033788;28;20116;-80
2022/09/10 04:00:42;;;;;;;20.33;11.15;;;16.20;99.90;;;;;;5034982;28;20044;-77
2022/09/10 04:03:09;;;;;;;15.52;11.40;;;16.20;99.90;;;;;;5034869;28;20029;-77
2022/09/10 04:05:39;;;;;;;16.98;11.13;;;16.20;99.90;;;;;;5017432;28;20026;-78
2022/09/10 04:08:06;;;;;;;14.90;10.77;;;16.30;99.90;;;;;;5033682;28;20195;-79
2022/09/10 04:10:32;;;;;;;15.95;10.45;;;16.30;99.90;;;;;;5033505;28;20018;-78
2022/09/10 04:12:58;;;;;;;18.25;11.00;;;16.30;99.90;;;;;;5033571;28;20486;-79
2022/09/10 04:15:25;;;;;;;17.95;10.63;;;16.30;99.90;;;;;;5034691;28;20017;-78
2022/09/10 04:17:50;;;;;;;15.85;10.27;;;16.30;99.90;;;;;;5033290;28;20029;-79
2022/09/10 04:20:18;;;;;;;13.65;9.73;;;16.30;99.90;;;;;;5017034;28;20033;-81
2022/09/10 04:22:45;;;;;;;13.80;10.40;;;16.30;99.90;;;;;;5034749;28;20359;-78
2022/09/10 04:25:11;;;;;;;15.57;10.55;;;16.30;99.90;;;;;;5034306;28;20401;-81
2022/09/10 04:27:37;;;;;;;16.52;10.70;;;16.40;99.90;;;;;;5016671;28;20120;-79
2022/09/10 04:30:04;;;;;;;14.70;10.38;;;16.40;99.90;;;;;;5033342;28;20117;-78
2022/09/10 04:32:29;;;;;;;21.65;12.68;;;16.40;99.90;;;;;;5034214;28;20030;-79
2022/09/10 04:34:55;;;;;;;17.88;11.80;;;16.40;99.90;;;;;;5016607;28;20025;-78
2022/09/10 04:37:21;;;;;;;13.50;10.88;;;16.40;99.90;;;;;;5034346;28;20087;-78
2022/09/10 04:39:46;;;;;;;14.02;9.48;;;16.40;99.90;;;;;;5022864;28;20491;-78
2022/09/10 04:42:19;;;;;;;14.32;10.82;;;16.40;99.90;;;;;;5022674;28;20474;-80
2022/09/10 04:44:48;;;;;;;14.23;11.10;;;16.40;99.90;;;;;;5042998;28;20017;-79
2022/09/10 04:47:14;;;;;;;13.50;9.85;;;16.40;99.90;;;;;;5036634;28;20078;-78
2022/09/10 04:49:40;;;;;;;17.75;10.77;;;16.50;99.90;;;;;;5052749;28;20108;-78
2022/09/10 04:52:06;;;;;;;17.25;10.75;;;16.50;99.90;;;;;;5052108;28;20100;-80
2022/09/10 04:54:35;;;;;;;16.42;10.40;;;16.50;99.90;;;;;;5053932;28;20029;-79
2022/09/10 04:57:00;;;;;;;13.73;10.07;;;16.50;99.90;;;;;;5020544;28;20444;-78
2022/09/10 04:59:26;;;;;;;13.77;10.13;;;16.50;99.90;;;;;;5036092;28;20060;-78
2022/09/10 05:01:52;;;;;;;13.80;11.13;;;16.50;99.90;;;;;;5052623;28;20029;-79
2022/09/10 05:04:18;;;;;;;16.08;10.95;;;16.60;99.90;;;;;;5052563;28;20025;-79
2022/09/10 05:06:44;;;;;;;15.05;10.07;;;16.60;99.90;;;;;;5035277;28;20032;-78
2022/09/10 05:09:10;;;;;;;17.52;10.60;;;16.50;99.90;;;;;;5052430;28;20029;-78
2022/09/10 05:11:36;;;;;;;13.77;9.55;;;16.60;99.90;;;;;;5053496;28;20025;-77
2022/09/10 05:14:02;;;;;;;14.07;9.05;;;16.60;99.90;;;;;;5052391;28;20025;-79
2022/09/10 05:16:28;;;;;;;14.43;9.85;;;16.60;99.90;;;;;;5035544;28;20095;-78
2022/09/10 05:18:53;;;;;;;11.32;8.68;;;16.60;99.90;;;;;;5035928;28;20024;-80
2022/09/10 05:21:19;;;;;;;12.82;9.23;;;16.60;99.90;;;;;;5035889;28;20068;-80
2022/09/10 05:23:44;;;;;;;13.70;8.85;;;16.60;99.90;;;;;;5053565;28;20122;-81
2022/09/10 05:26:10;;;;;;;11.65;9.27;;;16.60;99.90;;;;;;5053697;28;20043;-81
2022/09/10 05:28:36;;;;;;;14.63;9.68;;;16.60;99.90;;;;;;5052329;28;20389;-81
2022/09/10 05:31:02;;;;;;;13.02;8.57;;;16.70;99.90;;;;;;5052290;28;20033;-81
2022/09/10 05:33:28;;;;;;;14.88;9.45;;;16.70;99.90;;;;;;5051872;28;20496;-81
2022/09/10 05:35:53;;;;;;;14.27;9.27;;;16.60;99.90;;;;;;5052131;28;20036;-81
2022/09/10 05:38:19;;;;;;;14.07;10.35;;;16.70;99.90;;;;;;5035688;28;20022;-80
2022/09/10 05:40:45;;;;;;;13.00;9.75;;;16.70;99.90;;;;;;5035458;28;20025;-79
2022/09/10 05:43:11;;;;;;;11.95;8.75;;;16.70;99.90;;;;;;5053290;28;20036;-80
2022/09/10 05:45:36;;;;;;;13.57;9.52;;;16.70;99.90;;;;;;5053267;28;20028;-79
2022/09/10 05:48:02;;;;;;;17.30;10.10;;;16.60;99.90;;;;;;5051896;28;20095;-80
2022/09/10 05:50:29;;;;;;;15.40;10.25;;;16.70;99.90;;;;;;5053058;28;20036;-80
2022/09/10 05:52:55;;;;;;;15.60;10.40;;;16.60;99.90;;;;;;5053080;28;20020;-81
2022/09/10 05:55:21;;;;;;;11.77;9.98;;;16.60;99.90;;;;;;5051723;28;20115;-79
2022/09/10 05:57:47;;;;;;;16.83;10.88;;;16.60;99.90;;;;;;5053034;28;20476;-80
2022/09/10 06:00:14;;;;;;;13.73;10.88;;;16.60;99.90;;;;;;5051716;28;20025;-80
2022/09/10 06:02:41;;;;;;;11.65;8.68;;;16.50;99.90;;;;;;5051706;28;20060;-80
2022/09/10 06:05:11;;;;;;;13.77;8.40;;;16.60;99.90;;;;;;5052083;28;20102;-79
2022/09/10 06:07:36;;;;;;;11.82;8.50;;;16.60;99.90;;;;;;5035603;28;20492;-86
2022/09/10 06:10:02;;;;;;;11.88;8.40;;;16.50;99.90;;;;;;5052060;28;20064;-83
2022/09/10 06:12:28;;;;;;;9.82;6.68;;;16.50;99.90;;;;;;5035375;28;20116;-84
2022/09/10 06:14:53;;;;;;;10.65;6.03;;;16.60;99.90;;;;;;5052096;28;20039;-83
2022/09/10 06:17:19;;;;;;;10.65;6.60;;;16.50;99.90;;;;;;5053529;28;20029;-84
2022/09/10 06:19:45;;;;;;;12.07;8.13;;;16.50;99.90;;;;;;5056976;28;20508;-87
2022/09/10 06:22:12;;;;;;;9.48;7.00;;;16.50;99.90;;;;;;5057032;28;20431;-84
2022/09/10 06:24:38;;;;;;;12.25;7.28;;;16.50;99.90;;;;;;5056711;28;20040;-86
2022/09/10 06:27:04;;;;;;;9.25;5.70;;;16.50;99.90;;;;;;5058155;28;20025;-82
2022/09/10 06:29:31;;;;;;;7.93;4.40;;;16.40;99.90;;;;;;5057565;28;20102;-87
2022/09/10 06:31:58;;;;;;;6.57;4.10;;;16.40;99.90;;;;;;5056612;28;20029;-86
2022/09/10 06:34:24;;;;;;;5.32;3.13;;;16.40;99.90;;;;;;5056724;28;20036;-85
2022/09/10 06:36:50;;;;;;;6.40;3.33;;;16.40;99.90;;;;;;5056726;28;20032;-85
2022/09/10 06:39:16;;;;;;;10.52;5.85;;;16.40;99.90;;;;;;5057335;28;20381;-84
2022/09/10 06:41:42;;;;;;;9.15;6.88;;;16.30;99.90;;;;;;5055907;28;20031;-82
2022/09/10 06:44:08;;;;;;;11.90;8.18;;;16.30;99.90;;;;;;5040748;28;20121;-83
2022/09/10 06:46:35;;;;;;;17.92;11.13;;;16.20;99.90;;;;;;5035731;28;20440;-85
2022/09/10 06:49:02;;;;;;;17.75;12.23;;;16.20;99.90;;;;;;5035865;28;20033;-84
2022/09/10 06:51:28;;;;;;;19.95;14.05;;;16.20;99.90;;;;;;5034118;28;20079;-84
2022/09/10 06:53:55;;;;;;;19.42;13.15;;;16.20;99.90;;;;;;5036876;28;20092;-85
2022/09/10 06:56:21;;;;;;;21.42;14.77;;;16.20;99.90;;;;;;5035640;28;20523;-84
2022/09/10 06:58:47;;;;;;;22.70;16.60;;;16.20;99.90;;;;;;5035158;28;20044;-85
2022/09/10 07:01:17;;;;;;;23.55;15.68;;;16.20;99.90;;;;;;5036843;28;20469;-85
2022/09/10 07:03:44;;;;;;;21.35;15.77;;;16.20;99.90;;;;;;5035975;28;20108;-85
2022/09/10 07:06:12;;;;;;;21.38;16.33;;;16.20;99.90;;;;;;5037500;28;20029;-85
2022/09/10 07:08:39;;;;;;;30.17;16.33;;;16.20;99.90;;;;;;5038550;28;20128;-84
2022/09/10 07:11:07;;;;;;;24.88;16.23;;;16.20;99.90;;;;;;5037081;28;20381;-82
2022/09/10 07:13:34;;;;;;;27.38;17.52;;;16.20;99.90;;;;;;5038007;28;20037;-84
2022/09/10 07:16:00;;;;;;;25.92;17.38;;;16.20;99.90;;;;;;5038034;28;20155;-84
2022/09/10 07:18:26;;;;;;;24.80;17.63;;;16.20;99.90;;;;;;5036697;28;20056;-84
2022/09/10 07:20:52;;;;;;;22.88;15.90;;;16.20;99.90;;;;;;5037651;28;20021;-83
2022/09/10 07:23:20;;;;;;;26.02;17.08;;;16.10;99.90;;;;;;5036992;28;20160;-84
2022/09/10 07:25:46;;;;;;;24.33;16.33;;;16.20;99.90;;;;;;5037657;28;20029;-83
2022/09/10 07:28:15;;;;;;;25.95;18.45;;;16.20;99.90;;;;;;5035466;28;20394;-85
2022/09/10 07:30:41;;;;;;;28.98;18.98;;;16.20;99.90;;;;;;5037853;28;20034;-83
2022/09/10 07:33:09;;;;;;;28.15;19.13;;;16.20;99.90;;;;;;5037977;28;20043;-83
2022/09/10 07:35:36;;;;;;;28.02;19.02;;;16.20;99.90;;;;;;5037367;28;20072;-82
2022/09/10 07:38:06;;;;;;;23.45;18.10;;;16.20;99.90;;;;;;5035924;28;20446;-84
2022/09/10 07:40:32;;;;;;;27.85;18.55;;;16.30;99.90;;;;;;5035531;28;20030;-82
2022/09/10 07:42:58;;;;;;;26.52;18.85;;;16.20;99.90;;;;;;5036873;28;20113;-84
2022/09/10 07:45:25;;;;;;;21.90;17.05;;;16.30;99.90;;;;;;5035332;28;20065;-84
2022/09/10 07:47:51;;;;;;;25.35;18.13;;;16.30;99.90;;;;;;5035656;28;20100;-82
2022/09/10 07:50:18;;;;;;;28.42;18.88;;;16.30;99.90;;;;;;5035848;28;20034;-83
2022/09/10 07:52:43;;;;;;;26.33;18.05;;;16.40;99.90;;;;;;5036060;28;20029;-83
2022/09/10 07:55:09;;;;;;;25.45;18.67;;;16.50;99.90;;;;;;5036349;28;20033;-83
2022/09/10 07:57:39;;;;;;;24.52;17.42;;;16.50;99.90;;;;;;5037395;28;20025;-83
2022/09/10 08:00:13;;;;;;;23.02;17.40;;;16.60;99.90;;;;;;5036373;28;20036;-84
2022/09/10 08:02:45;;;;;;;26.02;17.50;;;16.70;99.90;;;;;;5037077;28;20400;-82
2022/09/10 08:05:12;;;;;;;18.33;14.57;;;16.80;99.90;;;;;;5037134;28;20037;-82
2022/09/10 08:07:39;;;;;;;23.60;15.93;;;16.90;99.90;;;;;;5039842;28;20017;-81
2022/09/10 08:10:08;;;;;;;18.50;13.57;;;17.00;99.90;;;;;;5038999;28;20104;-82
2022/09/10 08:12:38;;;;;;;20.38;15.88;;;17.10;99.90;;;;;;5040655;28;20104;-80
2022/09/10 08:15:05;;;;;;;19.10;15.85;;;17.30;99.90;;;;;;5040266;28;20017;-81
2022/09/10 08:17:30;;;;;;;20.02;13.98;;;17.30;99.90;;;;;;5040842;28;20099;-82
2022/09/10 08:19:57;;;;;;;16.92;14.40;;;17.40;99.90;;;;;;5041305;28;20485;-82
2022/09/10 08:22:24;;;;;;;19.95;15.43;;;17.50;99.90;;;;;;5042128;28;20026;-82
2022/09/10 08:24:49;;;;;;;17.80;13.60;;;17.60;99.90;;;;;;5037348;28;20125;-75
2022/09/10 08:27:16;;;;;;;16.73;14.10;;;17.70;99.90;;;;;;5034326;28;20104;-75
2022/09/10 08:29:42;;;;;;;16.77;14.32;;;17.70;99.90;;;;;;5034407;28;20033;-75
2022/09/10 08:32:09;;;;;;;18.63;14.65;;;17.80;99.90;;;;;;5034459;28;20025;-76
2022/09/10 08:34:34;;;;;;;17.10;13.98;;;17.80;99.90;;;;;;5034295;28;20107;-75
2022/09/10 08:37:02;;;;;;;16.55;14.13;;;17.80;99.90;;;;;;5034421;28;20405;-75
2022/09/10 08:39:29;;;;;;;16.63;13.13;;;17.80;99.90;;;;;;5034229;28;20100;-75
2022/09/10 08:42:02;;;;;;;16.73;13.43;;;17.80;99.90;;;;;;5032252;28;20052;-75
2022/09/10 08:44:37;;;;;;;16.08;14.38;;;17.80;99.90;;;;;;5034133;28;20057;-75
2022/09/10 08:47:20;;;;;;;16.63;14.00;;;17.80;99.90;;;;;;5034269;28;20018;-75
2022/09/10 08:49:54;;;;;;;16.98;13.98;;;17.90;99.90;;;;;;5034141;28;20083;-75
2022/09/10 08:52:23;;;;;;;17.30;14.48;;;18.00;99.90;;;;;;5031008;28;20485;-75
2022/09/10 08:55:17;;;;;;;14.73;13.13;;;18.00;99.90;;;;;;5029453;28;20120;-76
2022/09/10 08:58:22;;;;;;;14.60;12.82;;;18.20;99.90;;;;;;5032431;28;20025;-75
2022/09/10 09:00:54;;;;;;;18.00;13.43;;;18.20;99.90;;;;;;5033500;28;20032;-75
2022/09/10 09:03:41;;;;;;;20.20;14.00;;;18.40;99.90;;;;;;5033919;28;20033;-75
2022/09/10 09:06:21;;;;;;;13.20;11.77;;;18.40;99.90;;;;;;5033772;28;20063;-76
2022/09/10 09:08:49;;;;;;;16.95;12.48;;;18.60;99.90;;;;;;5028379;28;20471;-75
2022/09/10 09:11:38;;;;;;;15.20;13.65;;;18.70;99.90;;;;;;5033841;28;20038;-75
2022/09/10 09:14:23;;;;;;;14.35;12.75;;;18.80;99.90;;;;;;5032300;28;20086;-75
2022/09/10 09:17:04;;;;;;;12.80;10.73;;;19.00;99.90;;;;;;5034062;28;20057;-76
2022/09/10 09:19:40;;;;;;;11.95;10.13;;;19.20;99.90;;;;;;5033877;28;20076;-74
2022/09/10 09:22:11;;;;;;;13.57;10.68;;;19.50;99.90;;;;;;5033954;28;20378;-75
2022/09/10 09:24:56;;;;;;;10.18;8.60;;;19.70;99.90;;;;;;5032553;28;20046;-76
2022/09/10 09:27:27;;;;;;;12.80;9.88;;;19.70;99.90;;;;;;5032495;28;20377;-78
2022/09/10 09:29:59;;;;;;;13.50;10.48;;;19.70;99.90;;;;;;5031982;28;20410;-77
2022/09/10 09:32:27;;;;;;;13.18;10.90;;;19.60;99.90;;;;;;5028462;28;20141;-78
2022/09/10 09:35:06;;;;;;;17.08;14.32;;;19.50;99.90;;;;;;5012241;28;20474;-76
2022/09/10 09:37:33;;;;;;;17.08;15.27;;;19.30;99.90;;;;;;5012098;28;20033;-76
2022/09/10 09:40:30;;;;;;;17.27;14.52;;;19.00;99.90;;;;;;5012490;28;20117;-74
2022/09/10 09:43:31;;;;;;;11.48;10.35;;;18.80;99.90;;;;;;5021708;28;20033;-77
2022/09/10 09:45:57;;;;;;;15.25;12.68;;;18.60;99.90;;;;;;5025476;28;20495;-74
2022/09/10 09:48:23;;;;;;;19.02;14.90;;;18.50;99.90;;;;;;5028529;28;20036;-74
2022/09/10 09:50:52;;;;;;;17.60;14.30;;;18.30;99.90;;;;;;5015012;28;20129;-74
2022/09/10 09:53:28;;;;;;;14.75;12.63;;;18.20;99.90;;;;;;5033232;28;20104;-73
2022/09/10 09:55:59;;;;;;;16.42;12.68;;;18.20;99.90;;;;;;5026060;28;20132;-73
2022/09/10 09:58:25;;;;;;;12.10;9.75;;;18.10;99.90;;;;;;5020210;28;20088;-73
2022/09/10 10:01:03;;;;;;;12.10;8.88;;;18.10;99.90;;;;;;5012161;28;20066;-73
2022/09/10 10:03:43;;;;;;;12.15;9.68;;;18.00;99.90;;;;;;5029112;28;20104;-73
2022/09/10 10:06:10;;;;;;;11.68;9.25;;;18.00;99.90;;;;;;5029229;28;20046;-73
2022/09/10 10:08:38;;;;;;;11.48;9.55;;;17.90;99.90;;;;;;5013594;28;20029;-73
2022/09/10 10:11:05;;;;;;;12.45;9.68;;;18.00;99.90;;;;;;5013334;28;20482;-73
2022/09/10 10:13:49;;;;;;;11.82;10.23;;;17.90;99.90;;;;;;5028692;28;20101;-73
2022/09/10 10:16:21;;;;;;;;;;;18.00;99.90;;;;;;5013955;28;20034;-73
2022/09/10 10:18:48;;;;;;;11.40;10.20;;;18.00;99.90;;;;;;5013763;28;19988;-73
2022/09/10 10:21:19;;;;;;;14.77;11.13;;;18.00;99.90;;;;;;5013424;28;20419;-73
2022/09/10 10:23:46;;;;;;;17.85;13.93;;;18.10;99.90;;;;;;5012964;28;20050;-73
2022/09/10 10:26:20;;;;;;;12.82;11.52;;;18.40;99.90;;;;;;5028935;28;20512;-73
2022/09/10 10:29:05;;;;;;;9.32;8.32;;;19.20;99.90;;;;;;5028499;28;20397;-75
2022/09/10 10:31:37;;;;;;;8.70;6.75;;;20.00;99.90;;;;;;5021737;28;20060;-74
2022/09/10 10:34:19;;;;;;;6.65;5.03;;;20.50;99.90;;;;;;5012157;28;20038;-74
2022/09/10 10:37:22;;;;;;;7.25;5.75;;;20.70;99.90;;;;;;5012162;28;20419;-74
2022/09/10 10:40:14;;;;;;;6.30;5.38;;;20.60;99.90;;;;;;5020526;28;20033;-74
2022/09/10 10:42:58;;;;;;;7.63;5.88;;;20.40;99.90;;;;;;5011478;28;20148;-74
2022/09/10 10:45:37;;;;;;;;;;;20.30;99.90;;;;;;5013421;28;20025;-74
2022/09/10 10:48:11;;;;;;;8.52;6.97;;;20.20;99.90;;;;;;5011973;28;19941;-74
2022/09/10 10:50:42;;;;;;;5.07;4.57;;;20.70;99.90;;;;;;5011934;28;20165;-75
2022/09/10 10:53:26;;;;;;;4.28;3.03;;;21.60;99.90;;;;;;5012367;28;20034;-75
2022/09/10 10:55:57;;;;;;;3.38;2.60;;;22.40;99.90;;;;;;5025560;28;20029;-76
2022/09/10 10:58:48;;;;;;;3.50;2.22;;;23.30;99.90;;;;;;5031869;28;20428;-76
2022/09/10 11:01:28;;;;;;;2.35;1.60;;;24.20;99.90;;;;;;5031337;28;20517;-76
2022/09/10 11:04:36;;;;;;;2.60;1.90;;;24.50;99.90;;;;;;5033343;28;20087;-76
2022/09/10 11:07:13;;;;;;;4.15;2.10;;;24.50;99.90;;;;;;5036538;28;20021;-75
2022/09/10 11:10:02;;;;;;;4.18;2.40;;;24.30;99.90;;;;;;5036508;28;20025;-75
2022/09/10 11:12:33;;;;;;;3.55;2.45;;;24.10;99.90;;;;;;5035029;28;20509;-76
2022/09/10 11:15:27;;;;;;;4.07;2.67;;;23.70;99.90;;;;;;5035981;28;20120;-76
2022/09/10 11:18:05;;;;;;;;;;;23.30;99.90;;;;;;5035098;28;20047;-76
2022/09/10 11:20:41;;;;;;;4.22;2.70;;;23.00;99.90;;;;;;5031262;28;19909;-76
2022/09/10 11:23:19;;;;;;;3.55;2.80;;;22.70;99.90;;;;;;5016210;28;20025;-76
2022/09/10 11:26:07;;;;;;;5.00;4.03;;;22.60;99.90;;;;;;5022851;28;20037;-76
2022/09/10 11:28:39;;;;;;;6.97;3.47;;;22.50;99.90;;;;;;5025361;28;20029;-76
2022/09/10 11:31:23;;;;;;;6.60;2.95;;;22.50;99.90;;;;;;5016614;28;20026;-77
2022/09/10 11:34:21;;;;;;;4.30;3.10;;;22.40;99.90;;;;;;5031867;28;20056;-76
2022/09/10 11:36:58;;;;;;;4.47;3.00;;;22.20;99.90;;;;;;5014728;28;20084;-76
2022/09/10 11:39:37;;;;;;;4.50;2.67;;;22.10;99.90;;;;;;5015595;28;20022;-76
2022/09/10 11:42:16;;;;;;;3.60;2.45;;;22.20;99.90;;;;;;5030749;28;20022;-76
2022/09/10 11:45:01;;;;;;;3.88;2.38;;;22.40;99.90;;;;;;5024133;28;20496;-76
2022/09/10 11:47:32;;;;;;;5.82;2.13;;;22.60;99.90;;;;;;5018804;28;20033;-76
2022/09/10 11:50:09;;;;;;;2.40;1.27;;;22.60;99.90;;;;;;5014300;28;20489;-76
2022/09/10 11:52:35;;;;;;;2.42;1.20;;;22.50;99.90;;;;;;5015480;28;20033;-76
2022/09/10 11:55:02;;;;;;;2.38;1.10;;;22.40;99.90;;;;;;5015534;28;20021;-76
2022/09/10 11:57:56;;;;;;;1.70;0.90;;;22.20;99.70;;;;;;5014418;28;20026;-76
2022/09/10 12:00:24;;;;;;;1.92;0.70;;;22.10;99.00;;;;;;5014248;28;20036;-76
2022/09/10 12:03:13;;;;;;;2.25;0.75;;;22.00;98.60;;;;;;5015638;28;20149;-75
2022/09/10 12:06:09;;;;;;;1.13;0.70;;;21.80;97.50;;;;;;5013991;28;20460;-76
2022/09/10 12:08:50;;;;;;;2.00;0.60;;;21.70;97.10;;;;;;5015218;28;20061;-75
2022/09/10 12:11:37;;;;;;;3.80;0.68;;;21.60;97.10;;;;;;5015121;28;20017;-76
2022/09/10 12:14:12;;;;;;;1.38;0.60;;;21.60;97.00;;;;;;5015031;28;20034;-76
2022/09/10 12:16:57;;;;;;;1.38;0.80;;;21.80;98.30;;;;;;5014394;28;20014;-76
2022/09/10 12:19:44;;;;;;;2.58;0.60;;;22.40;98.80;;;;;;5014059;28;20028;-77
2022/09/10 12:22:29;;;;;;;3.05;0.50;;;23.00;97.70;;;;;;5014914;28;20113;-77
2022/09/10 12:25:07;;;;;;;2.05;0.50;;;23.20;96.30;;;;;;5013534;28;20042;-77
2022/09/10 12:27:48;;;;;;;0.73;0.30;;;23.20;95.00;;;;;;5014967;28;20026;-77
2022/09/10 12:30:26;;;;;;;0.65;0.32;;;23.10;93.10;;;;;;5014816;28;20041;-80
2022/09/10 12:32:53;;;;;;;1.80;0.43;;;22.90;92.10;;;;;;5016605;28;20113;-81
2022/09/10 12:35:31;;;;;;;0.93;0.43;;;22.80;92.00;;;;;;5014726;28;20022;-81
2022/09/10 12:38:34;;;;;;;1.13;0.40;;;22.70;92.00;;;;;;5015294;28;20026;-81
2022/09/10 12:41:01;;;;;;;2.15;0.45;;;22.60;91.90;;;;;;5016036;28;20444;-81
2022/09/10 12:43:39;;;;;;;1.83;0.60;;;22.50;91.70;;;;;;5016084;28;20036;-79
2022/09/10 12:46:07;;;;;;;2.03;0.50;;;22.40;91.50;;;;;;5017660;28;20104;-79
2022/09/10 12:48:38;;;;;;;1.63;0.52;;;22.40;91.60;;;;;;5016536;28;20122;-80
2022/09/10 12:51:39;;;;;;;1.92;0.43;;;22.30;91.80;;;;;;5017093;28;20061;-81
2022/09/10 12:54:23;;;;;;;0.80;0.40;;;22.40;91.50;;;;;;5014558;28;20038;-80
2022/09/10 12:57:14;;;;;;;1.13;0.43;;;22.30;91.50;;;;;;5013605;28;20026;-80
2022/09/10 12:59:48;;;;;;;0.73;0.32;;;22.20;91.50;;;;;;5013467;28;20041;-78